»·PEaware :: N707WT KSBP-KSBA

N707WT :: KSBP-KSBA

FLIGHT INFORMATION

Flight Status: Arrived
Operator: Privately registered:
United States
More flights under this callsign
Pilot: Mark B. (9455)
Aircraft: CIRRUS SR-20
(SR20)
More flights by this aircraft type
Origin: KSBP San Luis Co Regl
United States
Destination: KSBA Santa Barbara Mun
United States
More flights between these airports :: More routes between these airports
Route: +GVO
File this flight plan on PilotEdge
Remarks:
Altitude:
(Current/Filed)
5,000ft
Speed:
(Current/Filed)
145kts
Departed: 25-Feb-19 07:35 PM
Arrived: 25-Feb-19 08:21 PM
Distance/Time
Traveled:
63nm/0:45
Distance/Time
To Go:
Arrived

Flight Plot

Page will automatically refresh every two minutes.


Map Options




Map Legend


Flown Route
Filed Route
Departure Airport
Arrival Airport
Navaid (VOR, NDB)
Fix

Horizontal Profiles

Position Reports

Time Latitude Longitude Heading Altitude Ground
Speed
25-Feb-19 19:18 35.238480 -120.640028 304 190ft 0kts
25-Feb-19 19:19 35.238480 -120.640028 304 190ft 0kts
25-Feb-19 19:20 35.238480 -120.640028 304 190ft 0kts
25-Feb-19 19:21 35.238480 -120.640028 304 190ft 0kts
25-Feb-19 19:22 35.238480 -120.640028 304 190ft 0kts
25-Feb-19 19:23 35.238480 -120.640028 304 190ft 0kts
25-Feb-19 19:24 35.238480 -120.640028 304 190ft 0kts
25-Feb-19 19:25 35.238480 -120.640028 304 190ft 0kts
25-Feb-19 19:26 35.238480 -120.640028 304 190ft 0kts
25-Feb-19 19:27 35.238061 -120.640385 128 189ft 4kts
25-Feb-19 19:28 35.235023 -120.635043 123 206ft 25kts
25-Feb-19 19:29 35.233492 -120.632423 132 212ft 0kts
25-Feb-19 19:30 35.233492 -120.632423 132 212ft 0kts
25-Feb-19 19:31 35.233252 -120.632255 195 212ft 0kts
25-Feb-19 19:32 35.233235 -120.632268 218 212ft 0kts
25-Feb-19 19:33 35.233235 -120.632268 218 212ft 0kts
25-Feb-19 19:34 35.233444 -120.634357 306 206ft 46kts
25-Feb-19 19:36 35.244990 -120.653531 302 986ft 86kts
25-Feb-19 19:37 35.258351 -120.678334 298 2168ft 89kts
25-Feb-19 19:38 35.272267 -120.703738 305 3309ft 89kts
25-Feb-19 19:39 35.287441 -120.729102 307 4331ft 97kts
25-Feb-19 19:40 35.305431 -120.758071 309 4925ft 130kts
25-Feb-19 19:41 35.330103 -120.795507 309 4942ft 152kts
25-Feb-19 19:42 35.351628 -120.838539 266 4938ft 152kts
25-Feb-19 19:43 35.325664 -120.862114 173 4979ft 150kts
25-Feb-19 19:44 35.291432 -120.833688 137 5016ft 147kts
25-Feb-19 19:45 35.263476 -120.794874 127 4933ft 153kts
25-Feb-19 19:46 35.235837 -120.755501 134 4888ft 155kts
25-Feb-19 19:47 35.210752 -120.727038 144 4928ft 152kts
25-Feb-19 19:48 35.180521 -120.701004 145 4972ft 151kts
25-Feb-19 19:49 35.149151 -120.671906 137 4927ft 154kts
25-Feb-19 19:50 35.119515 -120.641581 140 4945ft 153kts
25-Feb-19 19:51 35.086300 -120.609964 143 5012ft 150kts
25-Feb-19 19:52 35.052607 -120.578318 142 4972ft 151kts
25-Feb-19 19:53 35.019167 -120.546754 141 4965ft 152kts
25-Feb-19 19:54 34.984761 -120.515972 145 4959ft 149kts
25-Feb-19 19:55 34.951526 -120.485419 135 4965ft 153kts
25-Feb-19 19:55 34.923764 -120.457916 143 4939ft 152kts
25-Feb-19 19:56 34.891061 -120.426391 141 4974ft 153kts
25-Feb-19 19:57 34.857025 -120.395173 141 4959ft 152kts
25-Feb-19 19:59 34.820455 -120.359991 141 4885ft 157kts
25-Feb-19 19:59 34.796599 -120.337240 142 4956ft 152kts
25-Feb-19 20:00 34.770043 -120.312947 142 4978ft 151kts
25-Feb-19 20:01 34.739381 -120.285489 145 4930ft 153kts
25-Feb-19 20:02 34.705564 -120.254520 140 4933ft 152kts
25-Feb-19 20:03 34.672627 -120.222451 144 4982ft 151kts
25-Feb-19 20:04 34.638404 -120.192409 141 4959ft 153kts
25-Feb-19 20:05 34.605233 -120.160214 142 4929ft 155kts
25-Feb-19 20:06 34.571980 -120.128372 141 4959ft 151kts
25-Feb-19 20:07 34.531100 -120.125261 191 4951ft 152kts
25-Feb-19 20:08 34.489715 -120.135493 191 4938ft 152kts
25-Feb-19 20:09 34.445069 -120.148992 196 4090ft 167kts
25-Feb-19 20:10 34.407995 -120.143727 108 3937ft 134kts
25-Feb-19 20:11 34.413852 -120.109495 67 4084ft 92kts
25-Feb-19 20:12 34.422699 -120.078774 83 4093ft 106kts
25-Feb-19 20:13 34.423799 -120.043020 89 3486ft 103kts
25-Feb-19 20:14 34.424504 -120.008470 89 2586ft 103kts
25-Feb-19 20:15 34.426359 -119.975735 88 1954ft 95kts
25-Feb-19 20:16 34.426071 -119.944252 84 1512ft 93kts
25-Feb-19 20:17 34.426419 -119.912287 87 1017ft 99kts
25-Feb-19 20:18 34.426998 -119.879076 88 461ft 97kts
25-Feb-19 20:19 34.427329 -119.851004 88 24ft 62kts
25-Feb-19 20:20 34.428160 -119.841895 337 10ft 13kts

Navigation Log

Ident Type
Flight plan parsing failed, navigation log unavailable